createdAt,value
2018-06-02T00:00:20.206Z,65.73
2018-06-02T00:02:47.703Z,65.90
2018-06-02T00:05:15.220Z,65.67
2018-06-02T00:07:42.712Z,65.48
2018-06-02T00:10:10.222Z,66.34
2018-06-02T00:12:37.714Z,66.74
2018-06-02T00:15:05.310Z,66.10
2018-06-02T00:17:32.860Z,66.60
2018-06-02T00:20:00.387Z,66.54
2018-06-02T00:22:27.881Z,67.47
2018-06-02T00:24:55.434Z,67.23
2018-06-02T00:27:22.948Z,67.17
2018-06-02T00:29:50.438Z,67.30
2018-06-02T00:32:17.935Z,67.63
2018-06-02T00:34:45.481Z,67.62
2018-06-02T00:37:12.945Z,67.81
2018-06-02T00:39:40.466Z,68.02
2018-06-02T00:42:07.935Z,68.23
2018-06-02T00:44:35.459Z,67.40
2018-06-02T00:47:02.981Z,67.39
2018-06-02T00:49:30.457Z,67.43
2018-06-02T00:51:57.972Z,67.62
2018-06-02T00:54:37.288Z,68.01
2018-06-02T00:57:04.826Z,68.96
2018-06-02T00:59:32.338Z,68.60
2018-06-02T01:01:59.828Z,68.98
2018-06-02T01:04:27.332Z,69.33
2018-06-02T01:06:54.803Z,69.14
2018-06-02T01:09:22.307Z,70.42
2018-06-02T01:11:49.821Z,70.47
2018-06-02T01:14:17.413Z,70.04
2018-06-02T01:16:44.924Z,70.98
2018-06-02T01:19:12.453Z,70.58
2018-06-02T01:21:39.968Z,71.11
2018-06-02T01:24:07.549Z,71.29
2018-06-02T01:26:35.041Z,71.14
2018-06-02T01:29:02.509Z,71.94
2018-06-02T01:31:30.015Z,71.53
2018-06-02T01:33:57.511Z,71.87
2018-06-02T01:36:25.025Z,71.77
2018-06-02T01:38:52.514Z,70.79
2018-06-02T01:41:20.016Z,71.21
2018-06-02T01:43:47.593Z,70.84
2018-06-02T01:46:15.059Z,71.81
2018-06-02T01:48:42.557Z,71.87
2018-06-02T01:51:10.098Z,71.47
2018-06-02T01:53:37.668Z,71.93
2018-06-02T01:56:05.147Z,71.66
2018-06-02T01:58:32.644Z,73.28
2018-06-02T02:01:00.732Z,72.75
2018-06-02T02:03:28.252Z,72.74
2018-06-02T02:05:55.723Z,71.98
2018-06-02T02:08:23.245Z,73.49
2018-06-02T02:10:50.740Z,73.18
2018-06-02T02:13:18.308Z,73.36
2018-06-02T02:15:45.796Z,73.23
2018-06-02T02:18:13.704Z,73.09
2018-06-02T02:20:41.208Z,73.37
2018-06-02T02:23:09.738Z,72.72
2018-06-02T02:25:37.253Z,73.26
2018-06-02T02:28:04.719Z,74.20
2018-06-02T02:30:32.265Z,74.13
2018-06-02T02:32:59.775Z,74.84
2018-06-02T02:35:27.281Z,75.05
2018-06-02T02:37:54.752Z,74.43
2018-06-02T02:40:22.291Z,74.87
2018-06-02T02:42:49.785Z,74.49
2018-06-02T02:45:17.262Z,74.71
2018-06-02T02:47:44.774Z,75.21
2018-06-02T02:50:12.298Z,74.96
2018-06-02T02:52:39.845Z,76.76
2018-06-02T02:55:07.339Z,76.06
2018-06-02T02:57:34.834Z,76.83
2018-06-02T03:00:02.330Z,75.82
2018-06-02T03:02:29.813Z,75.51
2018-06-02T03:04:57.337Z,76.44
2018-06-02T03:07:24.829Z,75.90
2018-06-02T03:09:52.486Z,75.58
2018-06-02T03:12:19.968Z,75.63
2018-06-02T03:14:47.447Z,75.24
2018-06-02T03:17:14.998Z,74.55
2018-06-02T03:19:42.494Z,75.45
2018-06-02T03:22:10.051Z,74.78
2018-06-02T03:24:37.617Z,75.70
2018-06-02T03:27:05.150Z,75.45
2018-06-02T03:29:32.670Z,76.36
2018-06-02T03:32:00.153Z,75.84
2018-06-02T03:34:27.679Z,75.81
2018-06-02T03:36:55.168Z,75.58
2018-06-02T03:39:22.659Z,75.97
2018-06-02T03:41:50.178Z,75.91
2018-06-02T03:44:17.669Z,76.09
2018-06-02T03:46:45.213Z,77.01
2018-06-02T03:49:12.711Z,76.69
2018-06-02T03:51:40.247Z,76.41
2018-06-02T03:54:07.830Z,76.22
2018-06-02T03:56:35.937Z,76.86
2018-06-02T03:59:03.435Z,76.29
2018-06-02T04:01:30.911Z,75.55
2018-06-02T04:03:58.930Z,77.22
2018-06-02T04:06:26.424Z,76.60
2018-06-02T04:08:53.901Z,77.65
2018-06-02T04:11:21.480Z,77.38
2018-06-02T04:13:48.966Z,77.46
2018-06-02T04:16:16.508Z,77.37
2018-06-02T04:18:44.032Z,78.11
2018-06-02T04:21:11.527Z,77.74
2018-06-02T04:23:39.076Z,78.56
2018-06-02T04:26:06.561Z,78.15
2018-06-02T04:28:34.080Z,77.94
2018-06-02T04:31:01.621Z,77.88
2018-06-02T04:33:29.135Z,79.10
2018-06-02T04:35:56.676Z,78.96
2018-06-02T04:38:24.168Z,78.75
2018-06-02T04:40:51.705Z,78.71
2018-06-02T04:43:19.208Z,78.19
2018-06-02T04:45:46.749Z,78.08
2018-06-02T04:48:14.234Z,78.30
2018-06-02T04:50:41.817Z,79.08
2018-06-02T04:53:09.323Z,78.37
2018-06-02T04:55:37.017Z,78.42
2018-06-02T04:58:04.499Z,78.53
2018-06-02T05:00:31.982Z,79.47
2018-06-02T05:02:59.505Z,79.28
2018-06-02T05:05:26.996Z,79.77
2018-06-02T05:07:54.513Z,78.92
2018-06-02T05:10:22.083Z,79.16
2018-06-02T05:12:49.554Z,79.52
2018-06-02T05:15:17.097Z,79.80
2018-06-02T05:17:44.592Z,81.14
2018-06-02T05:20:12.111Z,79.24
2018-06-02T05:22:39.589Z,80.63
2018-06-02T05:25:07.110Z,80.17
2018-06-02T05:27:34.589Z,79.96
2018-06-02T05:30:02.085Z,79.80
2018-06-02T05:32:29.612Z,80.29
2018-06-02T05:34:57.151Z,79.55
2018-06-02T05:37:24.677Z,80.44
2018-06-02T05:39:52.194Z,79.86
2018-06-02T05:42:19.691Z,80.22
2018-06-02T05:44:47.182Z,79.41
2018-06-02T05:47:14.668Z,79.30
2018-06-02T05:49:42.173Z,79.73
2018-06-02T05:52:09.657Z,80.45
2018-06-02T05:54:37.240Z,80.02
2018-06-02T05:57:04.694Z,80.63
2018-06-02T05:59:32.250Z,79.14
2018-06-02T06:01:59.806Z,80.52
2018-06-02T06:04:27.293Z,79.47
2018-06-02T06:06:54.824Z,80.32
2018-06-02T06:09:22.348Z,80.67
2018-06-02T06:11:49.839Z,80.80
2018-06-02T06:14:17.345Z,81.39
2018-06-02T06:16:44.818Z,82.36
2018-06-02T06:19:12.368Z,81.25
2018-06-02T06:21:39.887Z,80.61
2018-06-02T06:24:07.366Z,80.86
2018-06-02T06:26:34.916Z,80.53
2018-06-02T06:29:02.416Z,80.89
2018-06-02T06:31:29.935Z,80.51
2018-06-02T06:33:57.426Z,80.07
2018-06-02T06:36:25.077Z,80.18
2018-06-02T06:38:52.597Z,79.79
2018-06-02T06:41:20.133Z,79.79
2018-06-02T06:43:47.678Z,79.58
2018-06-02T06:46:15.187Z,80.05
2018-06-02T06:48:42.739Z,79.65
2018-06-02T06:51:10.729Z,79.45
2018-06-02T06:53:38.256Z,80.05
2018-06-02T06:56:07.791Z,78.87
2018-06-02T06:58:35.312Z,79.24
2018-06-02T07:01:04.415Z,79.13
2018-06-02T07:03:32.066Z,78.84
2018-06-02T07:05:59.563Z,78.89
2018-06-02T07:08:27.071Z,78.29
2018-06-02T07:10:56.679Z,78.31
2018-06-02T07:13:24.238Z,78.45
2018-06-02T07:15:51.784Z,78.69
2018-06-02T07:18:19.306Z,78.62
2018-06-02T07:20:46.828Z,78.34
2018-06-02T07:23:14.307Z,77.91
2018-06-02T07:25:41.818Z,77.88
2018-06-02T07:28:09.371Z,78.24
2018-06-02T07:30:36.898Z,78.40
2018-06-02T07:33:04.423Z,78.66
2018-06-02T07:35:31.977Z,78.19
2018-06-02T07:37:59.476Z,78.20
2018-06-02T07:40:26.997Z,77.49
2018-06-02T07:42:54.537Z,77.56
2018-06-02T07:45:22.030Z,77.44
2018-06-02T07:47:49.572Z,77.37
2018-06-02T07:50:17.077Z,77.81
2018-06-02T07:52:44.613Z,77.67
2018-06-02T07:55:12.110Z,77.83
2018-06-02T07:57:39.752Z,76.94
2018-06-02T08:00:07.224Z,78.18
2018-06-02T08:02:34.707Z,77.57
2018-06-02T08:05:02.262Z,77.58
2018-06-02T08:07:29.763Z,77.04
2018-06-02T08:09:57.316Z,77.49
2018-06-02T08:15:14.969Z,76.60
2018-06-02T08:17:42.551Z,76.42
2018-06-02T08:20:10.076Z,75.12
2018-06-02T08:22:37.726Z,74.77
2018-06-02T08:25:05.308Z,75.10
2018-06-02T08:27:32.870Z,74.12
2018-06-02T08:30:00.358Z,74.25
2018-06-02T08:32:27.889Z,74.67
2018-06-02T08:34:55.362Z,74.47
2018-06-02T08:37:22.924Z,74.91
2018-06-02T08:39:50.407Z,74.68
2018-06-02T08:42:17.926Z,74.16
2018-06-02T08:44:45.418Z,73.93
2018-06-02T08:47:13.525Z,74.37
2018-06-02T08:49:41.013Z,74.45
2018-06-02T08:52:08.531Z,73.68
2018-06-02T08:54:36.030Z,73.78
2018-06-02T08:57:03.519Z,73.99
2018-06-02T08:59:31.057Z,73.96
2018-06-02T09:01:58.569Z,73.75
2018-06-02T09:04:26.092Z,73.81
2018-06-02T09:06:53.657Z,73.26
2018-06-02T09:09:21.185Z,72.82
2018-06-02T09:11:48.695Z,73.22
2018-06-02T09:14:16.231Z,73.47
2018-06-02T09:16:43.731Z,73.21
2018-06-02T09:19:11.259Z,73.77
2018-06-02T09:21:38.783Z,73.56
2018-06-02T09:24:06.284Z,73.45
2018-06-02T09:26:33.791Z,74.40
2018-06-02T09:29:01.274Z,73.86
2018-06-02T09:31:28.783Z,74.26
2018-06-02T09:33:56.289Z,74.05
2018-06-02T09:36:23.906Z,74.71
2018-06-02T09:38:51.423Z,73.96
2018-06-02T09:41:18.938Z,74.96
2018-06-02T09:43:46.508Z,74.22
2018-06-02T09:46:14.051Z,73.82
2018-06-02T09:48:41.606Z,73.31
2018-06-02T09:51:09.153Z,73.29
2018-06-02T09:53:36.637Z,72.49
2018-06-02T09:56:04.172Z,72.06
2018-06-02T09:58:31.733Z,72.05
2018-06-02T10:00:59.318Z,71.49
2018-06-02T10:03:26.868Z,71.00
2018-06-02T10:05:54.379Z,70.75
2018-06-02T10:08:21.914Z,70.73
2018-06-02T10:10:49.395Z,70.52
2018-06-02T10:13:17.114Z,70.34
2018-06-02T10:15:44.600Z,70.14
2018-06-02T10:18:12.138Z,70.19
2018-06-02T10:20:39.677Z,71.50
2018-06-02T10:23:07.212Z,71.00
2018-06-02T10:25:34.821Z,71.91
2018-06-02T10:28:02.435Z,71.45
2018-06-02T10:30:29.921Z,71.64
2018-06-02T10:32:57.468Z,71.89
2018-06-02T10:35:24.993Z,72.29
2018-06-02T10:37:52.571Z,72.12
2018-06-02T10:40:20.083Z,71.87
2018-06-02T10:42:48.451Z,72.16
2018-06-02T10:45:15.951Z,71.34
2018-06-02T10:47:43.684Z,72.29
2018-06-02T10:50:11.197Z,72.15
2018-06-02T10:52:38.704Z,72.55
2018-06-02T10:55:06.259Z,72.55
2018-06-02T10:57:33.766Z,72.29
2018-06-02T11:00:01.314Z,71.87
2018-06-02T11:02:28.860Z,72.38
2018-06-02T11:04:56.729Z,71.86
2018-06-02T11:07:24.227Z,71.60
2018-06-02T11:09:51.758Z,71.55
2018-06-02T11:12:19.290Z,71.41
2018-06-02T11:14:46.789Z,71.15
2018-06-02T11:17:14.339Z,71.03
2018-06-02T11:19:41.864Z,70.63
2018-06-02T11:22:09.380Z,71.18
2018-06-02T11:24:36.893Z,71.33
2018-06-02T11:27:04.415Z,70.54
2018-06-02T11:29:31.932Z,71.28
2018-06-02T11:31:59.577Z,71.96
2018-06-02T11:34:27.081Z,72.14
2018-06-02T11:36:54.591Z,71.46
2018-06-02T11:39:22.129Z,71.13
2018-06-02T11:41:49.628Z,70.96
2018-06-02T11:44:17.788Z,70.96
2018-06-02T11:46:45.304Z,71.49
2018-06-02T11:49:12.900Z,71.43
2018-06-02T11:51:40.415Z,70.93
2018-06-02T11:54:07.915Z,71.21
2018-06-02T11:56:35.422Z,71.06
2018-06-02T11:59:02.914Z,70.25
2018-06-02T12:01:30.477Z,70.17
2018-06-02T12:03:57.968Z,69.91
2018-06-02T12:06:25.789Z,69.40
2018-06-02T12:08:53.298Z,69.65
2018-06-02T12:11:20.797Z,69.67
2018-06-02T12:13:48.356Z,69.99
2018-06-02T12:16:15.822Z,69.09
2018-06-02T12:18:43.330Z,69.00
2018-06-02T12:21:10.819Z,69.42
2018-06-02T12:23:38.339Z,69.31
2018-06-02T12:26:05.910Z,69.27
2018-06-02T12:28:33.710Z,70.84
2018-06-02T12:31:01.446Z,69.79
2018-06-02T12:33:29.180Z,70.30
2018-06-02T12:35:56.944Z,70.43
2018-06-02T12:38:24.466Z,69.42
2018-06-02T12:40:52.011Z,69.37
2018-06-02T12:43:19.618Z,70.00
2018-06-02T12:45:47.130Z,69.71
2018-06-02T12:48:14.648Z,69.75
2018-06-02T12:50:42.140Z,69.79
2018-06-02T12:53:09.685Z,69.41
2018-06-02T12:55:37.203Z,69.61
2018-06-02T12:58:04.759Z,70.30
2018-06-02T13:00:32.252Z,70.08
2018-06-02T13:02:59.782Z,70.28
2018-06-02T13:05:27.298Z,70.77
2018-06-02T13:07:54.803Z,70.38
2018-06-02T13:10:22.375Z,69.75
2018-06-02T13:12:50.309Z,70.59
2018-06-02T13:15:17.885Z,69.56
2018-06-02T13:17:45.402Z,69.56
2018-06-02T13:20:12.920Z,69.14
2018-06-02T13:22:40.410Z,68.74
2018-06-02T13:25:07.937Z,68.39
2018-06-02T13:27:35.457Z,68.99
2018-06-02T13:30:02.956Z,68.11
2018-06-02T13:32:30.513Z,68.36
2018-06-02T13:34:58.031Z,68.07
2018-06-02T13:37:25.585Z,68.24
2018-06-02T13:39:53.070Z,67.73
2018-06-02T13:42:20.601Z,68.33
2018-06-02T13:44:48.082Z,68.92
2018-06-02T13:47:15.599Z,68.18
2018-06-02T13:49:43.084Z,67.46
2018-06-02T13:52:10.569Z,68.21
2018-06-02T13:54:38.125Z,68.85
2018-06-02T13:57:05.852Z,67.89
2018-06-02T13:59:33.425Z,67.56
2018-06-02T14:02:01.039Z,68.33
2018-06-02T14:04:28.751Z,68.74
2018-06-02T14:06:56.326Z,68.60
2018-06-02T14:09:23.864Z,69.67
2018-06-02T14:11:51.374Z,68.98
2018-06-02T14:14:18.968Z,69.75
2018-06-02T14:16:46.470Z,69.13
2018-06-02T14:19:13.992Z,69.20
2018-06-02T14:21:41.505Z,69.47
2018-06-02T14:24:09.189Z,69.26
2018-06-02T14:26:36.718Z,70.36
2018-06-02T14:29:04.712Z,69.86
2018-06-02T14:31:32.901Z,70.69
2018-06-02T14:34:00.409Z,70.51
2018-06-02T14:36:28.033Z,70.38
2018-06-02T14:38:55.554Z,70.69
2018-06-02T14:41:23.102Z,69.61
2018-06-02T14:43:50.630Z,70.13
2018-06-02T14:46:18.945Z,69.42
2018-06-02T14:48:46.458Z,69.70
2018-06-02T14:51:13.976Z,69.87
2018-06-02T14:53:41.569Z,70.06
2018-06-02T14:56:09.082Z,71.32
2018-06-02T14:58:36.628Z,70.57
2018-06-02T15:01:04.117Z,70.35
2018-06-02T15:03:31.674Z,71.78
2018-06-02T15:05:59.157Z,71.65
2018-06-02T15:08:26.668Z,71.69
2018-06-02T15:10:54.221Z,70.91
2018-06-02T15:13:21.804Z,71.26
2018-06-02T15:15:49.311Z,70.35
2018-06-02T15:18:16.815Z,70.73
2018-06-02T15:20:44.350Z,69.99
2018-06-02T15:23:11.842Z,70.74
2018-06-02T15:25:39.381Z,70.03
2018-06-02T15:28:06.884Z,71.10
2018-06-02T15:30:34.369Z,70.61
2018-06-02T15:33:01.909Z,70.39
2018-06-02T15:35:29.457Z,70.67
2018-06-02T15:37:57.000Z,70.64
2018-06-02T15:40:24.513Z,70.42
2018-06-02T15:42:52.015Z,70.08
2018-06-02T15:45:19.517Z,70.21
2018-06-02T15:47:47.097Z,70.01
2018-06-02T15:50:14.585Z,70.70
2018-06-02T15:52:42.132Z,69.95
2018-06-02T15:55:09.662Z,70.78
2018-06-02T15:57:37.120Z,69.88
2018-06-02T16:00:04.622Z,70.20
2018-06-02T16:02:32.102Z,70.44
2018-06-02T16:04:59.606Z,71.05
2018-06-02T16:07:27.118Z,70.64
2018-06-02T16:09:54.671Z,71.15
2018-06-02T16:12:22.196Z,70.90
2018-06-02T16:14:49.695Z,71.70
2018-06-02T16:17:17.171Z,70.32
2018-06-02T16:19:44.713Z,69.99
2018-06-02T16:22:12.212Z,69.98
2018-06-02T16:24:39.703Z,69.07
2018-06-02T16:27:07.258Z,69.65
2018-06-02T16:29:34.741Z,70.05
2018-06-02T16:32:02.251Z,69.66
2018-06-02T16:34:29.755Z,69.10
2018-06-02T16:36:57.902Z,70.06
2018-06-02T16:39:25.389Z,69.77
2018-06-02T16:41:52.941Z,69.73
2018-06-02T16:44:20.450Z,69.71
2018-06-02T16:46:47.945Z,70.15
2018-06-02T16:49:15.447Z,69.69
2018-06-02T16:51:42.926Z,70.74
2018-06-02T16:54:10.468Z,70.97
2018-06-02T16:56:37.993Z,70.88
2018-06-02T16:59:05.510Z,70.71
2018-06-02T17:01:33.459Z,71.16
2018-06-02T17:04:00.965Z,71.75
2018-06-02T17:06:28.469Z,71.17
2018-06-02T17:08:56.003Z,71.50
2018-06-02T17:11:23.503Z,71.40
2018-06-02T17:13:51.035Z,71.77
2018-06-02T17:16:18.560Z,70.79
2018-06-02T17:18:46.533Z,70.84
2018-06-02T17:21:14.079Z,72.02
2018-06-02T17:23:42.615Z,71.22
2018-06-02T17:26:10.181Z,72.07
2018-06-02T17:28:47.779Z,71.36
2018-06-02T17:31:15.407Z,71.79
2018-06-02T17:33:43.881Z,71.82
2018-06-02T17:36:11.444Z,72.11
2018-06-02T17:38:39.017Z,71.59
2018-06-02T17:41:06.519Z,71.58
2018-06-02T17:43:34.016Z,72.87
2018-06-02T17:46:01.552Z,71.87
2018-06-02T17:48:29.134Z,71.21
2018-06-02T17:50:56.685Z,71.66
2018-06-02T17:53:24.161Z,71.89
2018-06-02T17:55:51.710Z,71.92
2018-06-02T17:58:19.184Z,71.72
2018-06-02T18:00:46.677Z,71.98
2018-06-02T18:03:14.220Z,72.00
2018-06-02T18:05:41.854Z,71.46
2018-06-02T18:08:09.401Z,72.34
2018-06-02T18:10:36.928Z,71.33
2018-06-02T18:13:04.495Z,71.67
2018-06-02T18:15:32.036Z,71.46
2018-06-02T18:17:59.541Z,72.13
2018-06-02T18:20:27.056Z,71.59
2018-06-02T18:22:54.577Z,72.58
2018-06-02T18:25:22.049Z,71.40
2018-06-02T18:27:49.581Z,70.92
2018-06-02T18:30:17.086Z,71.10
2018-06-02T18:32:44.616Z,72.59
2018-06-02T18:35:12.152Z,72.12
2018-06-02T18:37:39.670Z,72.10
2018-06-02T18:40:07.204Z,72.08
2018-06-02T18:42:35.162Z,72.34
2018-06-02T18:45:02.678Z,71.24
2018-06-02T18:47:30.216Z,71.95
2018-06-02T18:49:57.793Z,72.28
2018-06-02T18:52:25.304Z,73.01
2018-06-02T18:54:52.791Z,71.75
2018-06-02T18:57:20.310Z,71.50
2018-06-02T18:59:47.826Z,71.54
2018-06-02T19:02:15.362Z,71.96
2018-06-02T19:04:42.893Z,71.81
2018-06-02T19:07:10.417Z,71.96
2018-06-02T19:09:37.931Z,71.53
2018-06-02T19:12:05.472Z,71.94
2018-06-02T19:14:32.983Z,72.94
2018-06-02T19:17:00.489Z,72.38
2018-06-02T19:19:28.011Z,72.47
2018-06-02T19:21:55.532Z,72.24
2018-06-02T19:24:23.037Z,71.88
2018-06-02T19:26:50.555Z,72.19
2018-06-02T19:29:18.064Z,71.78
2018-06-02T19:31:45.529Z,72.19
2018-06-02T19:34:13.063Z,72.61
2018-06-02T19:36:40.544Z,72.72
2018-06-02T19:39:08.056Z,72.68
2018-06-02T19:41:35.531Z,73.82
2018-06-02T19:44:03.076Z,73.66
2018-06-02T19:46:30.593Z,72.60
2018-06-02T19:48:58.063Z,72.67
2018-06-02T19:51:25.608Z,72.41
2018-06-02T19:53:53.094Z,72.62
2018-06-02T19:56:20.709Z,72.74
2018-06-02T19:58:48.200Z,72.88
2018-06-02T20:01:15.771Z,73.62
2018-06-02T20:03:43.288Z,74.60
2018-06-02T20:06:10.811Z,73.90
2018-06-02T20:08:38.300Z,74.35
2018-06-02T20:11:05.776Z,74.34
2018-06-02T20:13:34.088Z,74.13
2018-06-02T20:16:01.603Z,73.87
2018-06-02T20:18:29.248Z,74.31
2018-06-02T20:20:57.513Z,75.00
2018-06-02T20:23:24.998Z,75.05
2018-06-02T20:25:52.522Z,74.39
2018-06-02T20:28:20.018Z,74.07
2018-06-02T20:30:47.535Z,73.55
2018-06-02T20:33:15.067Z,73.32
2018-06-02T20:35:42.617Z,74.57
2018-06-02T20:38:10.183Z,73.86
2018-06-02T20:40:37.706Z,73.93
2018-06-02T20:43:05.213Z,74.37
2018-06-02T20:45:32.719Z,74.52
2018-06-02T20:48:00.265Z,74.77
2018-06-02T20:50:27.760Z,74.54
2018-06-02T20:52:55.311Z,74.50
2018-06-02T20:55:22.847Z,74.55
2018-06-02T20:57:50.345Z,74.44
2018-06-02T21:00:18.002Z,74.16
2018-06-02T21:02:45.501Z,73.73
2018-06-02T21:05:13.038Z,74.41
2018-06-02T21:07:40.529Z,74.18
2018-06-02T21:10:08.081Z,74.50
2018-06-02T21:12:35.608Z,74.74
2018-06-02T21:15:03.140Z,74.58
2018-06-02T21:17:30.674Z,74.89
2018-06-02T21:19:58.213Z,75.21
2018-06-02T21:22:25.718Z,74.59
2018-06-02T21:25:26.819Z,75.72
2018-06-02T21:27:55.774Z,76.60
2018-06-02T21:30:24.090Z,76.62
2018-06-02T21:32:52.416Z,76.37
2018-06-02T21:35:20.803Z,76.31
2018-06-02T21:37:49.266Z,76.02
2018-06-02T21:40:17.596Z,75.68
2018-06-02T21:42:45.901Z,76.59
2018-06-02T21:45:14.266Z,75.63
2018-06-02T21:47:42.634Z,75.41
2018-06-02T21:50:11.171Z,76.32
2018-06-02T21:52:39.561Z,76.24
2018-06-02T21:55:07.862Z,77.47
2018-06-02T21:57:36.581Z,75.32
2018-06-02T22:00:05.810Z,76.72
2018-06-02T22:02:34.101Z,76.62
2018-06-02T22:05:02.421Z,76.62
2018-06-02T22:07:30.746Z,75.54
2018-06-02T22:09:59.063Z,76.95
2018-06-02T22:12:27.285Z,76.63
2018-06-02T22:14:55.682Z,77.84
2018-06-02T22:17:23.970Z,76.92
2018-06-02T22:19:52.288Z,77.17
2018-06-02T22:22:20.688Z,77.54
2018-06-02T22:24:49.003Z,77.01
2018-06-02T22:27:17.263Z,76.18
2018-06-02T22:29:45.534Z,76.50
2018-06-02T22:32:14.798Z,77.40
2018-06-02T22:34:43.249Z,77.33
2018-06-02T22:37:11.575Z,76.17
2018-06-02T22:39:39.852Z,77.34
2018-06-02T22:42:08.120Z,77.26
2018-06-02T22:44:36.430Z,77.78
2018-06-02T22:47:04.699Z,77.45
2018-06-02T22:49:32.982Z,77.35
2018-06-02T22:52:01.323Z,77.15
2018-06-02T22:54:29.593Z,77.39
2018-06-02T22:56:57.921Z,78.31
2018-06-02T22:59:26.295Z,76.96
2018-06-02T23:01:54.691Z,77.71
2018-06-02T23:04:23.004Z,77.18
2018-06-02T23:06:51.494Z,77.07
2018-06-02T23:09:19.785Z,77.34
2018-06-02T23:11:48.627Z,77.74
2018-06-02T23:14:16.955Z,77.74
2018-06-02T23:16:45.228Z,77.97
2018-06-02T23:19:13.677Z,78.55
2018-06-02T23:21:41.977Z,78.99
2018-06-02T23:24:10.301Z,79.36
2018-06-02T23:26:38.564Z,80.19
2018-06-02T23:29:06.872Z,80.19
2018-06-02T23:31:35.213Z,79.88
2018-06-02T23:34:03.517Z,79.65
2018-06-02T23:36:31.762Z,80.49
2018-06-02T23:39:00.074Z,80.66
2018-06-02T23:41:28.345Z,80.45
2018-06-02T23:43:57.249Z,80.40
2018-06-02T23:46:25.868Z,80.54
2018-06-02T23:48:54.112Z,81.61
2018-06-02T23:51:22.390Z,81.01
2018-06-02T23:53:50.760Z,81.10
2018-06-02T23:56:19.063Z,81.69
2018-06-02T23:58:47.306Z,82.52
